createdAt,value
2022-12-09T00:02:00.912Z,83.69
2022-12-09T00:04:45.127Z,82.68
2022-12-09T00:07:29.176Z,82.54
2022-12-09T00:10:13.433Z,82.19
2022-12-09T00:12:58.974Z,82.42
2022-12-09T00:15:43.906Z,82.32
2022-12-09T00:18:27.914Z,82.74
2022-12-09T00:21:19.859Z,83.25
2022-12-09T00:24:06.369Z,82.52
2022-12-09T00:26:50.484Z,84.02
2022-12-09T00:29:36.056Z,83.49
2022-12-09T00:32:20.301Z,84.54
2022-12-09T00:35:05.006Z,85.22
2022-12-09T00:37:50.457Z,85.15
2022-12-09T00:40:34.673Z,86.23
2022-12-09T00:43:18.592Z,85.74
2022-12-09T00:46:04.759Z,85.49
2022-12-09T00:48:48.889Z,86.65
2022-12-09T00:51:33.013Z,87.32
2022-12-09T00:54:18.255Z,86.26
2022-12-09T00:57:02.878Z,86.43
2022-12-09T00:59:46.834Z,87.76
2022-12-09T01:02:32.330Z,87.00
2022-12-09T01:05:16.870Z,87.36
2022-12-09T01:08:00.760Z,87.64
2022-12-09T01:10:45.984Z,87.03
2022-12-09T01:13:29.714Z,87.99
2022-12-09T01:16:18.038Z,87.61
2022-12-09T01:19:06.369Z,87.60
2022-12-09T01:21:50.370Z,87.58
2022-12-09T01:24:34.247Z,89.93
2022-12-09T01:27:17.908Z,89.17
2022-12-09T01:30:01.654Z,88.90
2022-12-09T01:32:47.097Z,87.70
2022-12-09T01:35:32.495Z,89.61
2022-12-09T01:38:16.507Z,89.05
2022-12-09T01:41:00.527Z,89.85
2022-12-09T01:43:44.846Z,88.23
2022-12-09T01:46:28.899Z,90.15
2022-12-09T01:49:18.271Z,88.99
2022-12-09T01:52:10.370Z,91.28
2022-12-09T01:54:55.720Z,90.88
2022-12-09T01:57:40.647Z,88.58
2022-12-09T02:00:24.759Z,88.94
2022-12-09T02:03:08.934Z,89.20
2022-12-09T02:05:53.404Z,88.37
2022-12-09T02:08:38.949Z,89.75
2022-12-09T02:11:31.962Z,88.21
2022-12-09T02:14:20.576Z,87.37
2022-12-09T02:17:25.214Z,88.68
2022-12-09T02:20:19.913Z,88.54
2022-12-09T02:23:12.817Z,89.23
2022-12-09T02:26:09.552Z,88.97
2022-12-09T02:29:23.001Z,88.30
2022-12-09T02:32:24.139Z,89.18
2022-12-09T02:35:13.063Z,89.51
2022-12-09T02:38:02.258Z,90.61
2022-12-09T02:40:51.703Z,89.65
2022-12-09T02:43:41.145Z,88.15
2022-12-09T02:46:30.861Z,88.03
2022-12-09T02:49:17.562Z,86.71
2022-12-09T02:52:04.376Z,86.97
2022-12-09T02:54:48.802Z,87.15
2022-12-09T02:57:36.056Z,87.47
2022-12-09T03:00:20.456Z,89.93
2022-12-09T03:03:06.588Z,89.80
2022-12-09T03:05:57.703Z,88.02
2022-12-09T03:08:49.109Z,87.51
2022-12-09T03:11:34.354Z,86.80
2022-12-09T03:14:22.618Z,86.51
2022-12-09T03:17:13.999Z,86.58
2022-12-09T03:20:02.117Z,87.16
2022-12-09T03:22:49.208Z,87.23
2022-12-09T03:25:39.742Z,87.88
2022-12-09T03:28:29.154Z,86.93
2022-12-09T03:31:19.125Z,86.64
2022-12-09T03:34:05.680Z,87.83
2022-12-09T03:36:53.225Z,86.98
2022-12-09T03:39:40.061Z,86.87
2022-12-09T03:42:32.482Z,87.04
2022-12-09T03:45:19.142Z,87.47
2022-12-09T03:48:03.649Z,88.69
2022-12-09T03:50:53.578Z,89.27
2022-12-09T03:53:44.468Z,89.85
2022-12-09T03:56:30.135Z,89.41
2022-12-09T03:59:17.364Z,88.75
2022-12-09T04:02:01.680Z,88.26
2022-12-09T04:04:46.137Z,89.36
2022-12-09T04:07:30.251Z,89.07
2022-12-09T04:10:14.362Z,90.44
2022-12-09T04:12:58.393Z,89.55
2022-12-09T04:15:43.706Z,87.45
2022-12-09T04:18:27.631Z,88.68
2022-12-09T04:21:14.584Z,89.04
2022-12-09T04:23:58.406Z,90.09
2022-12-09T04:26:43.306Z,88.51
2022-12-09T04:29:27.499Z,88.02
2022-12-09T04:32:12.860Z,87.53
2022-12-09T04:34:57.325Z,88.38
2022-12-09T04:37:41.383Z,90.07
2022-12-09T04:40:25.401Z,89.50
2022-12-09T04:43:09.749Z,90.46
2022-12-09T04:45:54.288Z,89.26
2022-12-09T04:48:39.851Z,89.21
2022-12-09T04:51:24.102Z,88.96
2022-12-09T04:54:08.960Z,89.83
2022-12-09T04:56:53.385Z,89.61
2022-12-09T04:59:37.436Z,88.33
2022-12-09T05:02:21.894Z,88.87
2022-12-09T05:05:08.737Z,88.23
2022-12-09T05:07:53.363Z,88.40
2022-12-09T05:10:37.753Z,88.98
2022-12-09T05:13:22.027Z,90.39
2022-12-09T05:16:13.901Z,89.66
2022-12-09T05:19:01.660Z,87.91
2022-12-09T05:21:47.577Z,87.19
2022-12-09T05:24:33.396Z,88.08
2022-12-09T05:27:17.491Z,88.29
2022-12-09T05:30:01.851Z,89.05
2022-12-09T05:32:46.793Z,86.95
2022-12-09T05:35:31.065Z,87.05
2022-12-09T05:38:16.803Z,86.83
2022-12-09T05:41:01.473Z,85.62
2022-12-09T05:43:46.510Z,87.14
2022-12-09T05:46:31.339Z,86.43
2022-12-09T05:49:15.570Z,86.63
2022-12-09T05:52:00.323Z,86.83
2022-12-09T05:54:46.012Z,85.52
2022-12-09T05:57:30.045Z,85.17
2022-12-09T06:00:15.794Z,84.32
2022-12-09T06:03:00.224Z,84.52
2022-12-09T06:05:45.145Z,84.98
2022-12-09T06:08:29.774Z,84.30
2022-12-09T06:11:17.475Z,83.94
2022-12-09T06:14:02.209Z,84.35
2022-12-09T06:16:46.718Z,83.66
2022-12-09T06:19:31.090Z,83.07
2022-12-09T06:22:15.675Z,83.02
2022-12-09T06:24:59.657Z,82.60
2022-12-09T06:27:45.119Z,81.78
2022-12-09T06:30:29.147Z,81.65
2022-12-09T06:33:37.311Z,82.29
2022-12-09T06:36:17.423Z,83.59
2022-12-09T06:39:09.964Z,85.08
2022-12-09T06:41:55.470Z,84.97
2022-12-09T06:44:41.533Z,84.24
2022-12-09T06:47:25.691Z,83.91
2022-12-09T06:50:10.957Z,83.52
2022-12-09T06:52:55.665Z,81.86
2022-12-09T06:55:39.867Z,82.11
2022-12-09T06:58:23.929Z,82.54
2022-12-09T07:01:13.938Z,81.83
2022-12-09T07:03:58.848Z,81.11
2022-12-09T07:06:45.439Z,79.69
2022-12-09T07:09:29.632Z,79.11
2022-12-09T07:12:13.827Z,80.00
2022-12-09T07:14:58.240Z,79.40
2022-12-09T07:17:43.973Z,77.96
2022-12-09T07:20:28.481Z,77.00
2022-12-09T07:23:13.733Z,75.80
2022-12-09T07:25:58.539Z,75.05
2022-12-09T07:28:44.214Z,74.56
2022-12-09T07:31:29.605Z,73.47
2022-12-09T07:34:15.174Z,72.72
2022-12-09T07:36:59.219Z,73.13
2022-12-09T07:39:43.085Z,72.87
2022-12-09T07:42:26.952Z,72.15
2022-12-09T07:45:13.277Z,71.60
2022-12-09T07:47:57.756Z,71.44
2022-12-09T07:50:43.452Z,72.20
2022-12-09T07:53:27.724Z,71.55
2022-12-09T07:56:13.404Z,72.43
2022-12-09T07:58:58.186Z,72.42
2022-12-09T08:01:42.843Z,72.50
2022-12-09T08:04:27.216Z,73.10
2022-12-09T08:07:13.699Z,72.76
2022-12-09T08:09:58.000Z,72.85
2022-12-09T08:12:41.889Z,73.63
2022-12-09T08:15:26.178Z,73.47
2022-12-09T08:18:10.380Z,73.15
2022-12-09T08:20:54.694Z,73.50
2022-12-09T08:23:42.039Z,73.65
2022-12-09T08:26:29.410Z,73.97
2022-12-09T08:29:15.303Z,76.15
2022-12-09T08:31:59.932Z,77.45
2022-12-09T08:34:44.285Z,75.05
2022-12-09T08:37:28.587Z,73.72
2022-12-09T08:40:15.464Z,73.67
2022-12-09T08:42:59.943Z,73.90
2022-12-09T08:45:44.307Z,73.35
2022-12-09T08:48:28.821Z,72.57
2022-12-09T08:51:13.489Z,72.00
2022-12-09T08:53:58.738Z,71.17
2022-12-09T08:56:47.861Z,70.96
2022-12-09T08:59:32.296Z,70.11
2022-12-09T09:02:16.430Z,71.55
2022-12-09T09:05:00.797Z,72.18
2022-12-09T09:07:47.007Z,71.89
2022-12-09T09:10:31.287Z,71.45
2022-12-09T09:13:17.004Z,69.74
2022-12-09T09:16:01.302Z,68.16
2022-12-09T09:18:45.978Z,67.74
2022-12-09T09:21:30.548Z,68.18
2022-12-09T09:24:18.232Z,69.52
2022-12-09T09:27:02.771Z,67.54
2022-12-09T09:29:48.383Z,67.23
2022-12-09T09:32:32.984Z,67.00
2022-12-09T09:35:17.228Z,67.07
2022-12-09T09:38:01.419Z,67.19
2022-12-09T09:40:45.811Z,67.18
2022-12-09T09:43:35.577Z,66.11
2022-12-09T09:46:35.021Z,65.17
2022-12-09T09:49:26.263Z,64.94
2022-12-09T09:52:17.080Z,64.57
2022-12-09T09:55:01.425Z,64.28
2022-12-09T09:57:50.507Z,65.22
2022-12-09T10:00:40.534Z,65.03
2022-12-09T10:03:37.418Z,65.11
2022-12-09T10:06:33.544Z,65.42
2022-12-09T10:09:28.372Z,62.14
2022-12-09T10:12:21.304Z,61.66
2022-12-09T10:15:11.519Z,62.67
2022-12-09T10:18:06.471Z,60.83
2022-12-09T10:20:52.136Z,60.52
2022-12-09T10:23:36.147Z,59.72
2022-12-09T10:26:24.657Z,58.63
2022-12-09T10:29:18.752Z,58.25
2022-12-09T10:32:02.912Z,59.10
2022-12-09T10:34:47.707Z,58.23
2022-12-09T10:37:36.200Z,58.00
2022-12-09T10:40:27.661Z,58.63
2022-12-09T10:43:42.521Z,58.72
2022-12-09T10:46:27.570Z,58.96
2022-12-09T10:49:20.904Z,58.87
2022-12-09T10:52:05.797Z,59.93
2022-12-09T10:54:52.328Z,59.09
2022-12-09T10:57:36.274Z,59.53
2022-12-09T11:00:31.033Z,58.81
2022-12-09T11:03:27.875Z,57.57
2022-12-09T11:06:25.207Z,58.01
2022-12-09T11:09:23.253Z,58.21
2022-12-09T11:12:18.416Z,58.41
2022-12-09T11:15:04.577Z,58.88
2022-12-09T11:17:58.599Z,57.15
2022-12-09T11:20:42.972Z,56.78
2022-12-09T11:23:28.000Z,56.73
2022-12-09T11:26:24.679Z,56.57
2022-12-09T11:29:17.804Z,57.48
2022-12-09T11:32:03.988Z,56.90
2022-12-09T11:34:48.533Z,56.71
2022-12-09T11:37:33.577Z,57.33
2022-12-09T11:40:18.291Z,58.36
2022-12-09T11:43:02.156Z,57.44
2022-12-09T11:45:47.378Z,57.85
2022-12-09T11:48:41.727Z,58.10
2022-12-09T11:51:30.159Z,57.79
2022-12-09T11:54:21.570Z,57.16
2022-12-09T11:57:07.651Z,57.52
2022-12-09T11:59:56.492Z,58.27
2022-12-09T12:02:45.468Z,58.52
2022-12-09T12:05:35.227Z,59.00
2022-12-09T12:08:26.886Z,59.01
2022-12-09T12:11:15.593Z,59.12
2022-12-09T12:14:04.921Z,59.97
2022-12-09T12:16:58.503Z,58.43
2022-12-09T12:19:52.372Z,57.81
2022-12-09T12:23:01.574Z,57.49
2022-12-09T12:25:54.988Z,56.08
2022-12-09T12:29:02.545Z,56.51
2022-12-09T12:32:16.933Z,56.04
2022-12-09T12:35:19.941Z,57.86
2022-12-09T12:38:19.031Z,57.04
2022-12-09T12:41:13.137Z,56.03
2022-12-09T12:44:26.225Z,56.01
2022-12-09T12:47:19.423Z,56.90
2022-12-09T12:50:31.995Z,57.81
2022-12-09T12:53:25.761Z,58.50
2022-12-09T12:56:14.733Z,59.59
2022-12-09T12:59:07.727Z,60.31
2022-12-09T13:01:54.656Z,60.44
2022-12-09T13:04:45.156Z,61.21
2022-12-09T13:07:37.841Z,61.30
2022-12-09T13:10:28.626Z,61.73
2022-12-09T13:13:20.687Z,61.97
2022-12-09T13:16:15.124Z,62.46
2022-12-09T13:19:07.081Z,62.99
2022-12-09T13:21:51.697Z,63.53
2022-12-09T13:24:42.375Z,64.09
2022-12-09T13:27:34.751Z,64.49
2022-12-09T13:30:22.012Z,65.35
2022-12-09T13:33:27.088Z,65.08
2022-12-09T13:36:19.513Z,65.95
2022-12-09T13:39:03.368Z,66.00
2022-12-09T13:42:06.001Z,66.23
2022-12-09T13:44:49.748Z,66.02
2022-12-09T13:47:37.596Z,66.31
2022-12-09T13:50:27.590Z,67.97
2022-12-09T13:53:27.188Z,67.23
2022-12-09T13:56:22.638Z,67.51
2022-12-09T13:59:43.619Z,67.42
2022-12-09T14:02:35.822Z,67.43
2022-12-09T14:05:23.045Z,69.16
2022-12-09T14:08:20.622Z,68.35
2022-12-09T14:11:49.347Z,68.64
2022-12-09T14:14:55.954Z,68.87
2022-12-09T14:18:02.171Z,70.31
2022-12-09T14:21:24.463Z,69.36
2022-12-09T14:24:33.828Z,69.42
2022-12-09T14:27:19.721Z,69.49
2022-12-09T14:30:26.472Z,69.53
2022-12-09T14:33:23.160Z,70.27
2022-12-09T14:36:21.378Z,69.93
2022-12-09T14:39:25.457Z,70.29
2022-12-09T14:42:14.301Z,70.42
2022-12-09T14:45:05.062Z,71.05
2022-12-09T14:47:50.320Z,71.33
2022-12-09T14:50:38.409Z,71.75
2022-12-09T14:53:24.638Z,72.14
2022-12-09T14:56:09.034Z,72.58
2022-12-09T14:58:57.032Z,72.93
2022-12-09T15:01:52.183Z,73.34
2022-12-09T15:04:43.001Z,74.41
2022-12-09T15:07:28.821Z,73.97
2022-12-09T15:10:20.921Z,74.78
2022-12-09T15:13:05.536Z,74.56
2022-12-09T15:15:49.350Z,75.07
2022-12-09T15:18:34.845Z,75.46
2022-12-09T15:21:31.191Z,75.25
2022-12-09T15:24:16.450Z,75.78
2022-12-09T15:27:02.741Z,76.01
2022-12-09T15:29:46.854Z,76.27
2022-12-09T15:32:31.766Z,77.25
2022-12-09T15:35:22.520Z,78.17
2022-12-09T15:38:10.130Z,77.22
2022-12-09T15:41:13.740Z,77.06
2022-12-09T15:44:02.325Z,77.19
2022-12-09T15:46:48.464Z,77.67
2022-12-09T15:49:36.828Z,77.39
2022-12-09T15:52:25.114Z,76.86
2022-12-09T15:55:16.198Z,78.11
2022-12-09T15:58:03.661Z,78.00
2022-12-09T16:00:50.304Z,78.30
2022-12-09T16:03:36.273Z,78.29
2022-12-09T16:06:27.628Z,78.89
2022-12-09T16:09:14.337Z,78.24
2022-12-09T16:11:59.494Z,78.51
2022-12-09T16:14:45.580Z,79.04
2022-12-09T16:17:35.076Z,78.34
2022-12-09T16:20:30.217Z,78.57
2022-12-09T16:23:22.436Z,80.92
2022-12-09T16:26:07.667Z,82.29
2022-12-09T16:28:57.991Z,81.11
2022-12-09T16:31:42.143Z,80.67
2022-12-09T16:34:28.369Z,81.87
2022-12-09T16:37:25.151Z,81.23
2022-12-09T16:40:58.169Z,80.65
2022-12-09T16:43:58.927Z,80.11
2022-12-09T16:46:42.901Z,80.83
2022-12-09T16:49:26.661Z,80.67
2022-12-09T16:52:13.421Z,80.35
2022-12-09T16:54:57.206Z,80.17
2022-12-09T16:57:40.894Z,80.34
2022-12-09T17:00:26.489Z,80.68
2022-12-09T17:03:17.926Z,81.27
2022-12-09T17:06:01.626Z,81.81
2022-12-09T17:08:45.938Z,81.66
2022-12-09T17:11:29.790Z,81.54
2022-12-09T17:14:13.560Z,81.84
2022-12-09T17:16:58.754Z,82.50
2022-12-09T17:19:42.990Z,82.27
2022-12-09T17:22:26.808Z,82.02
2022-12-09T17:25:11.047Z,82.56
2022-12-09T17:27:55.143Z,82.45
2022-12-09T17:30:39.649Z,82.05
2022-12-09T17:33:27.905Z,83.56
2022-12-09T17:36:12.468Z,83.68
2022-12-09T17:38:56.499Z,83.63
2022-12-09T17:41:40.418Z,82.98
2022-12-09T17:44:24.198Z,82.82
2022-12-09T17:47:07.990Z,83.45
2022-12-09T17:49:53.183Z,83.05
2022-12-09T17:52:37.133Z,83.75
2022-12-09T17:55:21.030Z,83.18
2022-12-09T17:58:05.057Z,83.25
2022-12-09T18:00:48.932Z,83.55
2022-12-09T18:03:55.131Z,83.57
2022-12-09T18:06:40.831Z,82.88
2022-12-09T18:09:25.642Z,83.66
2022-12-09T18:12:09.368Z,83.99
2022-12-09T18:14:53.504Z,85.28
2022-12-09T18:17:37.259Z,84.92
2022-12-09T18:20:21.283Z,84.98
2022-12-09T18:23:06.397Z,84.58
2022-12-09T18:25:50.498Z,84.60
2022-12-09T18:28:34.280Z,85.43
2022-12-09T18:31:19.867Z,83.96
2022-12-09T18:34:03.847Z,85.34
2022-12-09T18:36:47.550Z,85.16
2022-12-09T18:39:32.726Z,84.45
2022-12-09T18:42:17.795Z,85.41
2022-12-09T18:45:01.793Z,86.94
2022-12-09T18:47:47.347Z,86.66
2022-12-09T18:50:31.348Z,86.13
2022-12-09T18:53:15.479Z,86.42
2022-12-09T18:56:00.768Z,85.73
2022-12-09T18:59:05.250Z,85.66
2022-12-09T19:01:49.720Z,85.92
2022-12-09T19:04:33.974Z,85.69
2022-12-09T19:07:17.858Z,86.40
2022-12-09T19:10:01.594Z,86.67
2022-12-09T19:12:49.711Z,86.28
2022-12-09T19:15:35.482Z,85.54
2022-12-09T19:18:19.322Z,85.55
2022-12-09T19:21:09.268Z,85.80
2022-12-09T19:23:53.363Z,86.27
2022-12-09T19:26:38.183Z,86.12
2022-12-09T19:29:24.727Z,86.16
2022-12-09T19:32:29.366Z,86.66
2022-12-09T19:35:12.344Z,86.74
2022-12-09T19:38:01.070Z,86.87
2022-12-09T19:40:45.259Z,86.71
2022-12-09T19:43:29.236Z,86.96
2022-12-09T19:46:15.890Z,86.61
2022-12-09T19:49:00.040Z,86.70
2022-12-09T19:51:44.423Z,87.00
2022-12-09T19:54:29.849Z,86.59
2022-12-09T19:57:13.564Z,86.52
2022-12-09T19:59:57.583Z,86.68
2022-12-09T20:02:42.687Z,87.21
2022-12-09T20:05:26.642Z,87.21
2022-12-09T20:08:10.427Z,87.17
2022-12-09T20:10:54.114Z,87.24
2022-12-09T20:13:37.834Z,87.82
2022-12-09T20:16:23.543Z,87.67
2022-12-09T20:19:09.493Z,87.45
2022-12-09T20:21:53.267Z,88.51
2022-12-09T20:24:37.036Z,88.25
2022-12-09T20:27:21.154Z,88.13
2022-12-09T20:30:05.623Z,88.97
2022-12-09T20:32:49.649Z,88.61
2022-12-09T20:35:36.881Z,88.48
2022-12-09T20:38:20.567Z,88.05
2022-12-09T20:41:05.874Z,88.58
2022-12-09T20:43:51.042Z,89.14
2022-12-09T20:46:35.651Z,89.00
2022-12-09T20:49:25.567Z,89.08
2022-12-09T20:52:10.706Z,89.97
2022-12-09T20:54:54.505Z,90.10
2022-12-09T20:57:38.333Z,89.34
2022-12-09T21:00:22.294Z,88.48
2022-12-09T21:03:06.147Z,88.60
2022-12-09T21:05:49.941Z,88.64
2022-12-09T21:08:35.447Z,88.13
2022-12-09T21:11:20.812Z,89.04
2022-12-09T21:14:06.917Z,87.89
2022-12-09T21:16:51.467Z,88.33
2022-12-09T21:19:35.369Z,88.78
2022-12-09T21:22:19.110Z,88.37
2022-12-09T21:25:04.424Z,88.35
2022-12-09T21:27:48.318Z,88.38
2022-12-09T21:30:32.203Z,88.77
2022-12-09T21:33:15.950Z,89.01
2022-12-09T21:36:01.126Z,89.17
2022-12-09T21:38:45.626Z,90.12
2022-12-09T21:41:34.033Z,90.49
2022-12-09T21:44:20.111Z,90.89
2022-12-09T21:47:04.075Z,89.88
2022-12-09T21:49:48.109Z,89.92
2022-12-09T21:52:32.053Z,89.42
2022-12-09T21:55:16.090Z,89.44
2022-12-09T21:58:01.578Z,89.46
2022-12-09T22:00:45.643Z,89.45
2022-12-09T22:03:29.547Z,88.87
2022-12-09T22:06:14.106Z,88.73
2022-12-09T22:08:59.975Z,88.85
2022-12-09T22:11:44.129Z,88.42
2022-12-09T22:14:29.638Z,88.50
2022-12-09T22:17:13.657Z,88.08
2022-12-09T22:20:25.674Z,88.60
2022-12-09T22:23:01.760Z,88.25
2022-12-09T22:25:45.927Z,87.96
2022-12-09T22:28:30.584Z,86.96
2022-12-09T22:31:18.135Z,87.41
2022-12-09T22:34:04.651Z,87.31
2022-12-09T22:36:49.605Z,87.60
2022-12-09T22:39:33.574Z,87.97
2022-12-09T22:42:17.615Z,87.89
2022-12-09T22:45:01.737Z,89.24
2022-12-09T22:47:48.238Z,88.99
2022-12-09T22:50:32.369Z,90.41
2022-12-09T22:53:16.428Z,90.17
2022-12-09T22:56:00.551Z,91.19
2022-12-09T22:58:44.536Z,90.05
2022-12-09T23:01:31.061Z,89.89
2022-12-09T23:04:18.273Z,90.21
2022-12-09T23:07:02.158Z,89.73
2022-12-09T23:09:46.140Z,89.50
2022-12-09T23:12:30.088Z,89.83
2022-12-09T23:15:14.087Z,89.41
2022-12-09T23:17:58.620Z,88.50
2022-12-09T23:20:44.013Z,88.54
2022-12-09T23:23:28.003Z,89.39
2022-12-09T23:26:14.421Z,88.48
2022-12-09T23:28:59.906Z,88.78
2022-12-09T23:31:44.487Z,87.79
2022-12-09T23:34:28.386Z,88.28
2022-12-09T23:37:14.462Z,87.60
2022-12-09T23:39:58.357Z,87.70
2022-12-09T23:42:42.351Z,87.51
2022-12-09T23:45:26.375Z,87.43
2022-12-09T23:48:10.319Z,86.75
2022-12-09T23:50:55.043Z,86.78
2022-12-09T23:53:41.612Z,86.94
2022-12-09T23:56:27.474Z,88.18
2022-12-09T23:59:14.517Z,88.67
